Time;durP1;ratioP1;P1;durP2;ratioP2;P2;SDS_P1;SDS_P2;PMS_P1;PMS_P2;Temp;Humidity;BMP_temperature;BMP_pressure;BME280_temperature;BME280_humidity;BME280_pressure;Samples;Min_cycle;Max_cycle;Signal;HPM_P1;HPM_P2
2022/03/08 00:02:19;;;;;;;17.52;8.45;;;;;;;;;;5049583;28;20080;-80
2022/03/08 00:04:46;;;;;;;15.93;8.07;;;;;;;;;;5058056;28;20056;-79
2022/03/08 00:07:12;;;;;;;17.45;8.70;;;;;;;;;;5026643;28;20854;-80
2022/03/08 00:09:39;;;;;;;18.30;8.98;;;;;;;;;;5030200;28;20112;-80
2022/03/08 00:12:05;;;;;;;19.30;8.43;;;;;;;;;;5030683;28;20124;-79
2022/03/08 00:14:34;;;;;;;17.73;8.23;;;;;;;;;;5052674;28;20057;-80
2022/03/08 00:17:00;;;;;;;21.33;8.65;;;;;;;;;;5031421;28;20061;-80
2022/03/08 00:19:27;;;;;;;18.63;8.50;;;;;;;;;;5030036;28;20049;-80
2022/03/08 00:21:53;;;;;;;18.05;8.75;;;;;;;;;;5024196;28;20054;-80
2022/03/08 00:24:20;;;;;;;17.63;8.48;;;;;;;;;;5029607;28;20072;-80
2022/03/08 00:26:46;;;;;;;16.50;8.68;;;;;;;;;;5047226;28;20791;-80
2022/03/08 00:29:12;;;;;;;19.35;8.55;;;;;;;;;;5031741;28;20103;-80
2022/03/08 00:31:39;;;;;;;16.38;8.30;;;;;;;;;;5032786;28;20057;-79
2022/03/08 00:34:06;;;;;;;20.15;8.88;;;;;;;;;;5049514;28;20057;-80
2022/03/08 00:36:33;;;;;;;18.58;8.68;;;;;;;;;;5028606;28;20116;-80
2022/03/08 00:38:59;;;;;;;18.25;8.70;;;;;;;;;;5029597;28;20072;-80
2022/03/08 00:41:25;;;;;;;16.40;8.25;;;;;;;;;;5051431;28;20555;-79
2022/03/08 00:43:52;;;;;;;20.35;8.63;;;;;;;;;;5029892;28;20560;-79
2022/03/08 00:46:18;;;;;;;17.27;8.35;;;;;;;;;;5032409;28;20049;-80
2022/03/08 00:48:45;;;;;;;18.13;8.65;;;;;;;;;;5032835;28;20050;-80
2022/03/08 00:51:11;;;;;;;21.52;8.68;;;;;;;;;;5032032;28;20046;-80
2022/03/08 00:53:38;;;;;;;17.17;8.52;;;;;;;;;;5031069;28;20049;-80
2022/03/08 00:56:04;;;;;;;17.00;8.68;;;;;;;;;;5029232;28;20054;-80
2022/03/08 00:58:31;;;;;;;19.17;9.77;;;;;;;;;;5041335;28;20038;-80
2022/03/08 01:00:57;;;;;;;17.08;8.13;;;;;;;;;;5025362;28;20053;-80
2022/03/08 01:03:24;;;;;;;19.23;8.45;;;;;;;;;;5032110;28;20583;-80
2022/03/08 01:05:50;;;;;;;18.38;8.95;;;;;;;;;;5051105;28;20034;-80
2022/03/08 01:08:17;;;;;;;15.85;8.10;;;;;;;;;;5030529;28;20061;-80
2022/03/08 01:10:43;;;;;;;17.65;8.02;;;;;;;;;;5037207;28;20116;-79
2022/03/08 01:13:10;;;;;;;16.58;8.88;;;;;;;;;;5059572;28;20049;-79
2022/03/08 01:15:36;;;;;;;21.35;9.00;;;;;;;;;;5034825;28;21102;-79
2022/03/08 01:18:03;;;;;;;21.10;8.70;;;;;;;;;;5053965;28;20587;-80
2022/03/08 01:20:29;;;;;;;20.23;8.93;;;;;;;;;;5053698;28;20057;-79
2022/03/08 01:22:56;;;;;;;15.25;8.00;;;;;;;;;;5035117;28;20779;-80
2022/03/08 01:25:23;;;;;;;20.25;8.88;;;;;;;;;;5035547;28;20092;-79
2022/03/08 01:27:50;;;;;;;17.55;8.50;;;;;;;;;;5032408;28;20053;-80
2022/03/08 01:30:18;;;;;;;17.48;9.02;;;;;;;;;;5031426;28;20057;-80
2022/03/08 01:32:45;;;;;;;19.27;9.27;;;;;;;;;;5044941;28;20053;-80
2022/03/08 01:35:12;;;;;;;15.05;8.13;;;;;;;;;;5034680;28;20041;-80
2022/03/08 01:37:38;;;;;;;20.92;8.90;;;;;;;;;;5044564;28;20118;-80
2022/03/08 01:40:06;;;;;;;22.17;9.57;;;;;;;;;;5051176;28;20554;-80
2022/03/08 01:42:33;;;;;;;20.20;9.30;;;;;;;;;;5024115;28;20062;-80
2022/03/08 01:44:59;;;;;;;19.17;9.23;;;;;;;;;;5035254;28;20160;-80
2022/03/08 01:47:26;;;;;;;17.55;9.07;;;;;;;;;;5051443;28;20073;-79
2022/03/08 01:49:53;;;;;;;18.80;9.43;;;;;;;;;;5033767;28;20053;-80
2022/03/08 01:52:21;;;;;;;19.08;9.00;;;;;;;;;;5031552;28;20061;-80
2022/03/08 01:54:48;;;;;;;19.02;8.48;;;;;;;;;;5040498;28;20127;-79
2022/03/08 01:57:14;;;;;;;19.95;9.25;;;;;;;;;;5034149;28;20061;-80
2022/03/08 01:59:41;;;;;;;20.25;8.80;;;;;;;;;;5034781;28;20128;-80
2022/03/08 02:02:08;;;;;;;18.65;9.02;;;;;;;;;;5051990;28;20072;-79
2022/03/08 02:04:35;;;;;;;19.83;8.88;;;;;;;;;;5031341;28;20064;-79
2022/03/08 02:07:02;;;;;;;20.02;9.55;;;;;;;;;;5050992;28;20093;-80
2022/03/08 02:09:28;;;;;;;18.83;8.75;;;;;;;;;;5031290;28;20112;-79
2022/03/08 02:11:55;;;;;;;19.55;9.07;;;;;;;;;;5040627;28;20080;-79
2022/03/08 02:14:21;;;;;;;18.92;8.85;;;;;;;;;;5030680;28;20057;-79
2022/03/08 02:16:47;;;;;;;16.38;8.45;;;;;;;;;;5031067;28;20077;-80
2022/03/08 02:19:14;;;;;;;16.05;8.20;;;;;;;;;;5031627;28;20444;-79
2022/03/08 02:21:42;;;;;;;18.50;8.68;;;;;;;;;;5033813;28;20053;-79
2022/03/08 02:24:08;;;;;;;16.25;7.70;;;;;;;;;;5050538;28;20065;-79
2022/03/08 02:26:36;;;;;;;17.38;7.72;;;;;;;;;;5034697;28;20057;-80
2022/03/08 02:29:03;;;;;;;17.13;7.78;;;;;;;;;;5051784;28;20050;-79
2022/03/08 02:31:30;;;;;;;17.77;8.05;;;;;;;;;;5051492;28;20037;-80
2022/03/08 02:33:56;;;;;;;16.92;7.40;;;;;;;;;;5051964;28;20053;-79
2022/03/08 02:36:23;;;;;;;14.07;6.82;;;;;;;;;;5034674;28;20888;-79
2022/03/08 02:38:49;;;;;;;14.50;7.03;;;;;;;;;;5049432;28;20054;-79
2022/03/08 02:41:16;;;;;;;14.48;7.22;;;;;;;;;;5031441;28;20091;-80
2022/03/08 02:43:43;;;;;;;18.42;8.48;;;;;;;;;;5044131;28;20512;-80
2022/03/08 02:46:09;;;;;;;20.10;7.35;;;;;;;;;;5030199;28;20101;-79
2022/03/08 02:48:35;;;;;;;15.60;7.47;;;;;;;;;;5048105;28;20523;-80
2022/03/08 02:51:03;;;;;;;16.38;7.43;;;;;;;;;;5042589;28;20398;-80
2022/03/08 02:53:30;;;;;;;15.20;7.70;;;;;;;;;;5030091;28;20049;-80
2022/03/08 02:55:56;;;;;;;15.93;7.43;;;;;;;;;;5049867;28;20053;-80
2022/03/08 02:58:24;;;;;;;19.15;7.97;;;;;;;;;;5034493;28;20499;-79
2022/03/08 03:00:50;;;;;;;15.82;7.07;;;;;;;;;;5034619;28;20155;-80
2022/03/08 03:03:17;;;;;;;17.05;7.80;;;;;;;;;;5033929;28;20057;-80
2022/03/08 03:05:43;;;;;;;14.23;6.78;;;;;;;;;;5051583;28;20045;-80
2022/03/08 03:08:10;;;;;;;15.85;7.38;;;;;;;;;;5049155;28;20053;-79
2022/03/08 03:10:36;;;;;;;16.70;7.32;;;;;;;;;;5045625;28;20057;-79
2022/03/08 03:13:03;;;;;;;15.98;7.47;;;;;;;;;;5033052;28;20041;-80
2022/03/08 03:15:30;;;;;;;15.52;7.50;;;;;;;;;;5033833;28;20061;-80
2022/03/08 03:17:57;;;;;;;13.85;7.32;;;;;;;;;;5023716;28;20060;-80
2022/03/08 03:20:26;;;;;;;16.67;7.55;;;;;;;;;;5049605;28;20316;-79
2022/03/08 03:22:52;;;;;;;15.27;7.00;;;;;;;;;;5056895;28;20096;-80
2022/03/08 03:25:19;;;;;;;15.90;7.57;;;;;;;;;;5049623;28;20130;-80
2022/03/08 03:27:45;;;;;;;15.63;6.88;;;;;;;;;;5048708;28;20120;-80
2022/03/08 03:30:15;;;;;;;17.13;7.63;;;;;;;;;;5028526;28;20104;-79
2022/03/08 03:32:42;;;;;;;14.07;7.15;;;;;;;;;;5017469;28;20668;-80
2022/03/08 03:35:08;;;;;;;14.18;7.70;;;;;;;;;;5033734;28;20119;-80
2022/03/08 03:37:35;;;;;;;17.52;7.22;;;;;;;;;;5033190;28;20053;-79
2022/03/08 03:40:02;;;;;;;14.05;7.38;;;;;;;;;;5051166;28;20585;-80
2022/03/08 03:42:28;;;;;;;16.27;7.25;;;;;;;;;;5033712;28;20850;-82
2022/03/08 03:44:55;;;;;;;13.88;6.65;;;;;;;;;;5050915;28;20953;-83
2022/03/08 03:47:21;;;;;;;13.18;6.72;;;;;;;;;;5043122;28;20513;-82
2022/03/08 03:49:48;;;;;;;13.60;7.05;;;;;;;;;;5032731;28;20061;-82
2022/03/08 03:52:14;;;;;;;14.15;6.72;;;;;;;;;;5051559;28;20041;-82
2022/03/08 03:54:40;;;;;;;13.88;6.95;;;;;;;;;;5030647;28;20060;-82
2022/03/08 03:57:09;;;;;;;12.77;6.53;;;;;;;;;;5027651;28;20123;-82
2022/03/08 03:59:35;;;;;;;13.48;6.70;;;;;;;;;;5033554;28;20123;-81
2022/03/08 04:02:02;;;;;;;13.25;6.75;;;;;;;;;;5051193;28;20095;-81
2022/03/08 04:04:28;;;;;;;13.77;5.80;;;;;;;;;;5051331;28;20064;-81
2022/03/08 04:06:55;;;;;;;11.38;6.18;;;;;;;;;;5050651;28;20053;-82
2022/03/08 04:09:21;;;;;;;13.43;6.47;;;;;;;;;;5030663;28;20521;-81
2022/03/08 04:11:47;;;;;;;11.13;5.50;;;;;;;;;;5029398;28;20061;-82
2022/03/08 04:14:15;;;;;;;13.93;6.07;;;;;;;;;;5033684;28;20054;-82
2022/03/08 04:16:41;;;;;;;10.98;5.80;;;;;;;;;;5051003;28;20053;-81
2022/03/08 04:19:08;;;;;;;12.85;6.10;;;;;;;;;;5032095;28;20053;-82
2022/03/08 04:21:34;;;;;;;10.75;5.60;;;;;;;;;;5046317;28;20049;-82
2022/03/08 04:24:00;;;;;;;12.45;5.90;;;;;;;;;;5055068;28;20061;-81
2022/03/08 04:26:27;;;;;;;11.85;6.40;;;;;;;;;;5036284;28;20045;-82
2022/03/08 04:28:53;;;;;;;14.55;6.80;;;;;;;;;;5026422;28;20054;-82
2022/03/08 04:31:20;;;;;;;11.90;6.57;;;;;;;;;;5027190;28;20053;-82
2022/03/08 04:33:46;;;;;;;12.93;6.38;;;;;;;;;;5055577;28;20077;-81
2022/03/08 04:36:12;;;;;;;13.00;6.35;;;;;;;;;;5034936;28;20058;-81
2022/03/08 04:38:39;;;;;;;11.98;6.20;;;;;;;;;;5036438;28;20062;-82
2022/03/08 04:41:05;;;;;;;15.45;6.65;;;;;;;;;;5038311;28;20509;-82
2022/03/08 04:43:33;;;;;;;14.35;6.18;;;;;;;;;;5038536;28;20033;-82
2022/03/08 04:45:59;;;;;;;13.02;6.10;;;;;;;;;;5054181;28;20177;-82
2022/03/08 04:48:26;;;;;;;12.57;5.72;;;;;;;;;;5037222;28;20054;-82
2022/03/08 04:50:52;;;;;;;14.80;6.03;;;;;;;;;;5036276;28;20057;-82
2022/03/08 04:53:19;;;;;;;14.77;6.07;;;;;;;;;;5054192;28;20456;-81
2022/03/08 04:55:45;;;;;;;12.00;5.97;;;;;;;;;;5036407;28;20057;-81
2022/03/08 04:58:11;;;;;;;12.65;5.88;;;;;;;;;;5033998;28;20057;-82
2022/03/08 05:00:39;;;;;;;11.48;6.30;;;;;;;;;;5053402;28;20084;-82
2022/03/08 05:03:05;;;;;;;12.70;5.28;;;;;;;;;;5055484;28;20064;-82
2022/03/08 05:05:33;;;;;;;11.07;5.75;;;;;;;;;;5033551;28;20595;-82
2022/03/08 05:08:00;;;;;;;10.93;5.88;;;;;;;;;;5053147;28;20475;-82
2022/03/08 05:10:26;;;;;;;11.00;6.05;;;;;;;;;;5024221;28;20050;-82
2022/03/08 05:12:53;;;;;;;11.35;5.13;;;;;;;;;;5028664;28;21920;-82
2022/03/08 05:15:19;;;;;;;10.77;5.28;;;;;;;;;;5036822;28;20041;-82
2022/03/08 05:17:46;;;;;;;11.93;6.00;;;;;;;;;;5027426;28;20069;-82
2022/03/08 05:20:12;;;;;;;10.93;5.82;;;;;;;;;;5034845;28;20108;-81
2022/03/08 05:22:39;;;;;;;11.70;5.65;;;;;;;;;;5032640;28;20050;-81
2022/03/08 05:25:05;;;;;;;11.77;6.22;;;;;;;;;;5036510;28;20062;-81
2022/03/08 05:27:32;;;;;;;12.30;5.60;;;;;;;;;;5036308;28;20571;-82
2022/03/08 05:29:59;;;;;;;12.77;6.20;;;;;;;;;;5035920;28;20133;-82
2022/03/08 05:32:25;;;;;;;12.68;5.93;;;;;;;;;;5033826;28;20050;-81
2022/03/08 05:34:52;;;;;;;11.38;5.47;;;;;;;;;;5034850;28;20041;-81
2022/03/08 05:37:18;;;;;;;13.27;6.10;;;;;;;;;;5036058;28;20045;-82
2022/03/08 05:39:44;;;;;;;15.43;6.28;;;;;;;;;;5033863;28;20042;-82
2022/03/08 05:42:11;;;;;;;12.25;5.38;;;;;;;;;;5052975;28;20053;-82
2022/03/08 05:44:38;;;;;;;11.95;6.15;;;;;;;;;;5032548;28;20057;-81
2022/03/08 05:47:05;;;;;;;11.43;6.15;;;;;;;;;;5036666;28;20132;-82
2022/03/08 05:49:32;;;;;;;10.50;5.40;;;;;;;;;;5037362;28;20060;-82
2022/03/08 05:51:58;;;;;;;10.27;5.30;;;;;;;;;;5047271;28;20123;-81
2022/03/08 05:54:25;;;;;;;9.95;5.47;;;;;;;;;;5033953;28;20057;-81
2022/03/08 05:56:51;;;;;;;11.18;5.80;;;;;;;;;;5033000;28;20049;-82
2022/03/08 05:59:18;;;;;;;13.63;6.22;;;;;;;;;;5038749;28;20052;-81
2022/03/08 06:01:44;;;;;;;9.90;5.18;;;;;;;;;;5053910;28;20045;-82
2022/03/08 06:04:11;;;;;;;11.02;4.88;;;;;;;;;;5034551;28;20108;-82
2022/03/08 06:06:37;;;;;;;10.88;5.60;;;;;;;;;;5054129;28;20129;-82
2022/03/08 06:09:03;;;;;;;9.82;5.35;;;;;;;;;;5053650;28;20104;-82
2022/03/08 06:11:32;;;;;;;9.68;5.22;;;;;;;;;;5035802;28;20103;-82
2022/03/08 06:13:59;;;;;;;10.98;5.60;;;;;;;;;;5058318;28;20053;-82
2022/03/08 06:16:25;;;;;;;9.57;5.78;;;;;;;;;;5035286;28;20057;-81
2022/03/08 06:18:55;;;;;;;10.20;5.07;;;;;;;;;;5034734;28;20675;-82
2022/03/08 06:21:21;;;;;;;11.52;5.72;;;;;;;;;;5053169;28;20053;-82
2022/03/08 06:23:48;;;;;;;13.20;5.45;;;;;;;;;;5033172;28;20085;-82
2022/03/08 06:26:14;;;;;;;10.98;5.68;;;;;;;;;;5034453;28;20054;-81
2022/03/08 06:28:40;;;;;;;12.57;6.00;;;;;;;;;;5035050;28;20152;-82
2022/03/08 06:31:07;;;;;;;12.07;5.85;;;;;;;;;;5055451;28;20049;-82
2022/03/08 06:33:33;;;;;;;11.48;5.95;;;;;;;;;;5052135;28;20053;-82
2022/03/08 06:36:00;;;;;;;12.10;6.35;;;;;;;;;;5049379;28;20053;-82
2022/03/08 06:38:27;;;;;;;11.73;5.55;;;;;;;;;;5052193;28;20053;-81
2022/03/08 06:40:54;;;;;;;18.08;6.25;;;;;;;;;;5053820;28;20052;-82
2022/03/08 06:43:21;;;;;;;12.02;5.82;;;;;;;;;;5047676;28;20516;-82
2022/03/08 06:45:47;;;;;;;10.23;5.53;;;;;;;;;;5046717;28;20064;-82
2022/03/08 06:48:14;;;;;;;12.35;5.97;;;;;;;;;;5029358;28;20049;-82
2022/03/08 06:50:40;;;;;;;12.45;6.50;;;;;;;;;;5031460;28;20604;-82
2022/03/08 06:53:06;;;;;;;11.25;5.63;;;;;;;;;;5035161;28;20057;-83
2022/03/08 06:55:35;;;;;;;17.50;7.85;;;;;;;;;;5053688;28;20524;-82
2022/03/08 06:58:04;;;;;;;10.75;5.45;;;;;;;;;;5030990;28;20065;-82
2022/03/08 07:00:31;;;;;;;13.55;5.93;;;;;;;;;;5050329;28;20111;-81
2022/03/08 07:02:57;;;;;;;11.93;6.18;;;;;;;;;;5044709;28;20046;-82
2022/03/08 07:05:24;;;;;;;14.73;5.97;;;;;;;;;;5037679;28;20503;-82
2022/03/08 07:07:50;;;;;;;11.77;6.20;;;;;;;;;;5069680;22;20049;-82
2022/03/08 07:10:17;;;;;;;13.98;6.30;;;;;;;;;;5064207;28;20079;-82
2022/03/08 07:12:44;;;;;;;12.95;6.15;;;;;;;;;;5042369;28;20049;-82
2022/03/08 07:15:10;;;;;;;12.10;6.20;;;;;;;;;;5039391;28;20092;-82
2022/03/08 07:17:36;;;;;;;10.40;5.57;;;;;;;;;;5053371;28;20037;-83
2022/03/08 07:20:03;;;;;;;12.18;6.18;;;;;;;;;;5041067;28;20053;-79
2022/03/08 07:22:30;;;;;;;12.95;6.53;;;;;;;;;;5028954;28;20053;-79
2022/03/08 07:24:56;;;;;;;14.80;6.65;;;;;;;;;;5040245;28;20081;-79
2022/03/08 07:27:22;;;;;;;13.40;6.13;;;;;;;;;;5051628;28;20095;-79
2022/03/08 07:29:49;;;;;;;11.98;6.53;;;;;;;;;;5031032;28;20623;-79
2022/03/08 07:32:15;;;;;;;11.07;6.07;;;;;;;;;;5040314;28;20572;-78
2022/03/08 07:34:42;;;;;;;15.68;6.05;;;;;;;;;;5025625;28;20056;-79
2022/03/08 07:37:08;;;;;;;17.13;6.50;;;;;;;;;;5032734;28;20096;-78
2022/03/08 07:39:34;;;;;;;12.32;5.90;;;;;;;;;;5028550;28;20084;-79
2022/03/08 07:42:01;;;;;;;13.50;6.35;;;;;;;;;;5049724;28;20069;-77
2022/03/08 07:44:30;;;;;;;12.35;6.25;;;;;;;;;;5046149;28;20057;-79
2022/03/08 07:46:59;;;;;;;10.68;5.97;;;;;;;;;;5046492;28;20053;-79
2022/03/08 07:49:25;;;;;;;13.32;6.53;;;;;;;;;;5022487;28;20049;-80
2022/03/08 07:51:52;;;;;;;13.25;6.75;;;;;;;;;;5043665;28;20505;-80
2022/03/08 07:54:18;;;;;;;13.07;6.40;;;;;;;;;;5052587;28;20029;-79
2022/03/08 07:56:45;;;;;;;17.23;6.55;;;;;;;;;;5048964;28;20068;-78
2022/03/08 07:59:11;;;;;;;12.45;5.97;;;;;;;;;;5033578;28;20049;-79
2022/03/08 08:01:37;;;;;;;11.43;5.90;;;;;;;;;;5045625;28;20062;-79
2022/03/08 08:04:04;;;;;;;12.50;6.38;;;;;;;;;;5022314;28;20049;-79
2022/03/08 08:06:30;;;;;;;12.35;5.93;;;;;;;;;;5038415;28;20057;-78
2022/03/08 08:08:57;;;;;;;12.07;6.40;;;;;;;;;;5040186;28;20076;-77
2022/03/08 08:11:23;;;;;;;11.05;5.78;;;;;;;;;;5019964;28;20050;-79
2022/03/08 08:13:50;;;;;;;10.13;5.68;;;;;;;;;;5029790;28;20045;-79
2022/03/08 08:16:17;;;;;;;10.85;5.63;;;;;;;;;;5022998;28;20584;-77
2022/03/08 08:18:44;;;;;;;13.02;6.22;;;;;;;;;;5028780;28;20095;-77
2022/03/08 08:21:10;;;;;;;11.73;5.68;;;;;;;;;;5046369;28;20108;-79
2022/03/08 08:23:37;;;;;;;12.57;6.03;;;;;;;;;;5051455;28;20049;-77
2022/03/08 08:26:03;;;;;;;12.98;6.07;;;;;;;;;;5043929;28;20093;-77
2022/03/08 08:28:29;;;;;;;10.88;5.85;;;;;;;;;;5032099;28;20045;-77
2022/03/08 08:30:58;;;;;;;9.32;5.35;;;;;;;;;;5032539;28;20077;-79
2022/03/08 08:33:25;;;;;;;13.25;5.45;;;;;;;;;;5048251;28;20064;-79
2022/03/08 08:35:51;;;;;;;9.88;5.40;;;;;;;;;;5032838;28;20500;-77
2022/03/08 08:38:18;;;;;;;11.77;5.63;;;;;;;;;;5048779;28;20127;-77
2022/03/08 08:40:44;;;;;;;9.23;5.18;;;;;;;;;;5049296;28;20058;-78
2022/03/08 08:43:10;;;;;;;10.82;5.78;;;;;;;;;;5038643;28;20111;-77
2022/03/08 08:45:37;;;;;;;8.25;4.93;;;;;;;;;;5047108;28;20123;-77
2022/03/08 08:48:04;;;;;;;9.63;4.95;;;;;;;;;;5042532;28;20046;-77
2022/03/08 08:50:30;;;;;;;11.30;5.53;;;;;;;;;;5042856;28;20077;-77
2022/03/08 08:52:56;;;;;;;9.82;5.63;;;;;;;;;;5032934;28;20057;-77
2022/03/08 08:55:23;;;;;;;10.05;5.28;;;;;;;;;;5047788;28;20054;-77
2022/03/08 08:57:50;;;;;;;11.65;5.70;;;;;;;;;;5032204;28;20057;-77
2022/03/08 09:00:16;;;;;;;9.82;5.43;;;;;;;;;;5027834;28;20050;-77
2022/03/08 09:02:43;;;;;;;11.90;5.55;;;;;;;;;;5024633;28;20085;-77
2022/03/08 09:05:11;;;;;;;11.98;5.68;;;;;;;;;;5048141;28;20080;-77
2022/03/08 09:07:38;;;;;;;10.68;5.80;;;;;;;;;;5048993;28;20111;-77
2022/03/08 09:10:04;;;;;;;12.65;5.35;;;;;;;;;;5044566;28;20586;-77
2022/03/08 09:12:31;;;;;;;11.02;6.00;;;;;;;;;;5049914;28;20142;-77
2022/03/08 09:14:57;;;;;;;9.57;5.53;;;;;;;;;;5041393;28;20057;-78
2022/03/08 09:17:24;;;;;;;8.98;5.55;;;;;;;;;;5038573;28;20108;-79
2022/03/08 09:19:50;;;;;;;9.95;5.55;;;;;;;;;;5035770;28;20065;-79
2022/03/08 09:22:16;;;;;;;11.27;5.80;;;;;;;;;;5030293;28;20108;-79
2022/03/08 09:24:43;;;;;;;8.80;5.15;;;;;;;;;;5028258;28;20115;-79
2022/03/08 09:27:10;;;;;;;10.15;5.20;;;;;;;;;;5065067;28;20076;-78
2022/03/08 09:29:37;;;;;;;12.65;5.45;;;;;;;;;;5037513;28;20054;-78
2022/03/08 09:32:04;;;;;;;8.40;4.75;;;;;;;;;;5030388;28;20103;-80
2022/03/08 09:34:32;;;;;;;9.80;5.80;;;;;;;;;;5039959;28;20054;-79
2022/03/08 09:36:59;;;;;;;8.50;5.20;;;;;;;;;;5064070;28;20108;-79
2022/03/08 09:39:25;;;;;;;8.82;4.82;;;;;;;;;;5036356;28;20054;-79
2022/03/08 09:41:55;;;;;;;9.80;5.07;;;;;;;;;;5037734;28;20148;-78
2022/03/08 09:44:22;;;;;;;10.75;4.88;;;;;;;;;;5028702;28;20053;-78
2022/03/08 09:46:48;;;;;;;9.13;5.38;;;;;;;;;;5036895;28;20060;-79
2022/03/08 09:49:14;;;;;;;8.07;4.50;;;;;;;;;;5033248;28;20131;-76
2022/03/08 09:51:42;;;;;;;9.48;5.13;;;;;;;;;;5062919;28;20061;-79
2022/03/08 09:54:08;;;;;;;8.30;4.90;;;;;;;;;;5043690;28;20098;-78
2022/03/08 09:56:44;;;;;;;12.98;4.93;;;;;;;;;;5033766;28;20064;-77
2022/03/08 09:59:18;;;;;;;10.30;5.32;;;;;;;;;;5030688;28;20089;-79
2022/03/08 10:01:45;;;;;;;9.00;4.90;;;;;;;;;;5032965;28;20059;-79
2022/03/08 10:04:18;;;;;;;10.32;4.85;;;;;;;;;;5033336;28;20080;-79
2022/03/08 10:06:59;;;;;;;10.90;5.00;;;;;;;;;;5035235;28;20055;-79
2022/03/08 10:09:28;;;;;;;7.75;4.68;;;;;;;;;;5048716;28;20061;-78
2022/03/08 10:11:55;;;;;;;9.98;4.63;;;;;;;;;;5036384;28;20045;-78
2022/03/08 10:14:36;;;;;;;9.18;4.65;;;;;;;;;;5034618;28;20038;-78
2022/03/08 10:17:03;;;;;;;10.60;4.50;;;;;;;;;;5038189;28;20068;-79
2022/03/08 10:19:29;;;;;;;8.30;4.78;;;;;;;;;;5058343;28;20053;-79
2022/03/08 10:21:57;;;;;;;7.15;4.15;;;;;;;;;;5047128;28;21057;-79
2022/03/08 10:24:25;;;;;;;7.95;4.53;;;;;;;;;;5028755;28;20056;-79
2022/03/08 10:26:57;;;;;;;9.02;4.60;;;;;;;;;;5029673;28;20068;-79
2022/03/08 10:29:29;;;;;;;7.60;4.53;;;;;;;;;;5052575;28;20064;-79
2022/03/08 10:32:04;;;;;;;12.80;4.72;;;;;;;;;;5040435;28;20076;-78
2022/03/08 10:34:31;;;;;;;7.90;4.40;;;;;;;;;;5056016;28;20058;-78
2022/03/08 10:37:14;;;;;;;7.40;4.15;;;;;;;;;;5031612;28;20053;-79
2022/03/08 10:39:55;;;;;;;7.57;4.38;;;;;;;;;;5051254;28;20053;-80
2022/03/08 10:42:23;;;;;;;9.82;4.55;;;;;;;;;;5034653;28;20500;-79
2022/03/08 10:44:50;;;;;;;6.95;4.30;;;;;;;;;;5026747;28;20050;-79
2022/03/08 10:47:17;;;;;;;7.97;4.70;;;;;;;;;;5043864;28;20044;-79
2022/03/08 10:49:56;;;;;;;7.30;4.75;;;;;;;;;;5027894;28;20060;-79
2022/03/08 10:52:30;;;;;;;7.72;4.75;;;;;;;;;;5061986;28;20045;-79
2022/03/08 10:55:14;;;;;;;7.93;4.22;;;;;;;;;;5046348;28;20055;-79
2022/03/08 10:58:03;;;;;;;9.23;4.50;;;;;;;;;;5033463;28;20065;-79
2022/03/08 11:00:31;;;;;;;9.18;4.25;;;;;;;;;;5043748;28;20057;-78
2022/03/08 11:02:58;;;;;;;7.70;4.20;;;;;;;;;;5039663;28;20069;-79
2022/03/08 11:05:26;;;;;;;9.55;4.40;;;;;;;;;;5048156;28;20136;-79
2022/03/08 11:07:53;;;;;;;7.40;4.07;;;;;;;;;;5049424;28;20093;-77
2022/03/08 11:10:20;;;;;;;6.78;3.75;;;;;;;;;;5046378;28;20058;-79
2022/03/08 11:12:46;;;;;;;8.48;4.10;;;;;;;;;;5051813;28;20107;-79
2022/03/08 11:15:14;;;;;;;6.45;3.70;;;;;;;;;;5034383;28;20092;-79
2022/03/08 11:17:45;;;;;;;7.22;4.05;;;;;;;;;;5048461;28;20057;-79
2022/03/08 11:20:12;;;;;;;7.53;3.90;;;;;;;;;;5052565;28;20303;-79
2022/03/08 11:22:40;;;;;;;8.48;3.72;;;;;;;;;;5026091;28;20132;-79
2022/03/08 11:25:08;;;;;;;11.43;3.95;;;;;;;;;;5041958;28;20054;-79
2022/03/08 11:27:54;;;;;;;7.82;4.00;;;;;;;;;;5048224;28;20080;-80
2022/03/08 11:30:26;;;;;;;8.65;3.83;;;;;;;;;;5033223;28;20092;-79
2022/03/08 11:32:52;;;;;;;7.45;4.32;;;;;;;;;;5049389;28;20096;-79
2022/03/08 11:35:36;;;;;;;6.47;3.67;;;;;;;;;;5027069;28;20137;-78
2022/03/08 11:38:04;;;;;;;7.35;4.20;;;;;;;;;;5020003;28;20104;-79
2022/03/08 11:40:33;;;;;;;8.25;4.00;;;;;;;;;;5051326;28;20049;-79
2022/03/08 11:43:03;;;;;;;7.30;4.15;;;;;;;;;;5038380;28;20046;-80
2022/03/08 11:45:30;;;;;;;6.85;3.55;;;;;;;;;;5039234;28;20049;-79
2022/03/08 11:48:02;;;;;;;6.00;3.92;;;;;;;;;;5044454;28;20064;-79
2022/03/08 11:50:30;;;;;;;6.95;3.92;;;;;;;;;;5047935;28;20060;-79
2022/03/08 11:53:06;;;;;;;7.00;3.80;;;;;;;;;;5042690;28;20053;-79
2022/03/08 11:55:34;;;;;;;8.98;4.00;;;;;;;;;;5043193;28;20045;-79
2022/03/08 11:58:02;;;;;;;9.55;3.65;;;;;;;;;;5031629;28;20576;-79
2022/03/08 12:00:32;;;;;;;7.72;4.15;;;;;;;;;;5047786;28;20061;-79
2022/03/08 12:03:04;;;;;;;8.93;3.50;;;;;;;;;;5049562;28;20088;-78
2022/03/08 12:05:43;;;;;;;9.02;4.00;;;;;;;;;;5051039;28;20060;-79
2022/03/08 12:08:22;;;;;;;8.50;4.20;;;;;;;;;;5032641;28;20119;-80
2022/03/08 12:10:49;;;;;;;8.68;3.67;;;;;;;;;;5044847;28;20517;-79
2022/03/08 12:13:36;;;;;;;7.57;3.70;;;;;;;;;;5034902;28;20065;-79
2022/03/08 12:16:06;;;;;;;19.58;4.95;;;;;;;;;;5036889;28;20524;-79
2022/03/08 12:18:34;;;;;;;23.75;5.10;;;;;;;;;;5053484;28;20073;-79
2022/03/08 12:21:16;;;;;;;5.88;3.65;;;;;;;;;;5030650;28;20050;-78
2022/03/08 12:23:47;;;;;;;7.38;4.00;;;;;;;;;;5047104;28;20534;-79
2022/03/08 12:26:33;;;;;;;6.43;3.80;;;;;;;;;;5051875;28;20131;-78
2022/03/08 12:29:31;;;;;;;6.68;3.90;;;;;;;;;;5049491;28;20152;-79
2022/03/08 12:31:57;;;;;;;6.60;3.75;;;;;;;;;;5032657;28;20739;-79
2022/03/08 12:34:36;;;;;;;7.07;3.85;;;;;;;;;;5037075;28;20061;-78
2022/03/08 12:37:38;;;;;;;6.93;3.72;;;;;;;;;;5042194;28;20132;-79
2022/03/08 12:40:04;;;;;;;7.43;4.25;;;;;;;;;;5037220;28;20057;-79
2022/03/08 12:42:34;;;;;;;6.75;4.38;;;;;;;;;;5056907;28;20049;-79
2022/03/08 12:45:17;;;;;;;7.32;4.03;;;;;;;;;;5046236;28;20068;-79
2022/03/08 12:47:43;;;;;;;9.02;4.30;;;;;;;;;;5048804;28;20109;-79
2022/03/08 12:50:11;;;;;;;8.30;4.60;;;;;;;;;;5022937;28;20156;-79
2022/03/08 12:52:43;;;;;;;6.95;4.10;;;;;;;;;;5059971;28;20056;-79
2022/03/08 12:55:11;;;;;;;7.82;4.53;;;;;;;;;;5039170;28;20119;-79
2022/03/08 12:57:45;;;;;;;10.00;4.20;;;;;;;;;;5044486;28;20057;-79
2022/03/08 13:00:27;;;;;;;13.95;4.25;;;;;;;;;;5035933;28;20038;-79
2022/03/08 13:02:54;;;;;;;8.85;4.38;;;;;;;;;;5032654;28;20058;-79
2022/03/08 13:05:25;;;;;;;8.00;4.18;;;;;;;;;;5027421;28;20060;-79
2022/03/08 13:07:52;;;;;;;6.30;4.10;;;;;;;;;;5053779;28;20042;-79
2022/03/08 13:10:20;;;;;;;8.73;4.75;;;;;;;;;;5053156;28;20076;-79
2022/03/08 13:12:51;;;;;;;7.13;4.60;;;;;;;;;;5054801;28;20076;-79
2022/03/08 13:15:18;;;;;;;10.13;4.57;;;;;;;;;;5056365;28;20080;-79
2022/03/08 13:17:49;;;;;;;10.85;4.72;;;;;;;;;;5035665;28;20110;-79
2022/03/08 13:20:29;;;;;;;7.18;4.13;;;;;;;;;;5042241;28;20049;-79
2022/03/08 13:22:57;;;;;;;7.03;4.28;;;;;;;;;;5036417;28;20049;-78
2022/03/08 13:25:23;;;;;;;7.82;4.30;;;;;;;;;;5059868;28;20126;-79
2022/03/08 13:27:54;;;;;;;8.15;4.43;;;;;;;;;;5056336;28;20111;-79
2022/03/08 13:30:25;;;;;;;9.60;4.47;;;;;;;;;;5052794;28;20123;-79
2022/03/08 13:33:10;;;;;;;7.65;4.18;;;;;;;;;;5056454;28;20089;-78
2022/03/08 13:35:38;;;;;;;9.48;4.43;;;;;;;;;;5043274;28;20076;-78
2022/03/08 13:38:05;;;;;;;7.72;4.50;;;;;;;;;;5037915;28;20057;-79
2022/03/08 13:40:33;;;;;;;8.05;4.00;;;;;;;;;;5037623;28;20049;-79
2022/03/08 13:43:04;;;;;;;7.57;4.28;;;;;;;;;;5040225;28;20045;-79
2022/03/08 13:45:50;;;;;;;8.27;4.80;;;;;;;;;;5045247;28;20582;-79
2022/03/08 13:48:28;;;;;;;6.93;4.35;;;;;;;;;;5040833;28;20140;-79
2022/03/08 13:50:59;;;;;;;9.27;4.50;;;;;;;;;;5054348;28;20128;-79
2022/03/08 13:53:26;;;;;;;6.28;4.30;;;;;;;;;;5043580;28;20057;-79
2022/03/08 13:55:55;;;;;;;9.15;4.78;;;;;;;;;;5041608;28;20103;-79
2022/03/08 13:58:22;;;;;;;9.40;4.20;;;;;;;;;;5056752;28;20108;-79
2022/03/08 14:00:49;;;;;;;9.98;4.43;;;;;;;;;;5059128;28;20508;-78
2022/03/08 14:03:17;;;;;;;9.68;4.82;;;;;;;;;;5038685;28;20087;-78
2022/03/08 14:05:48;;;;;;;9.02;4.68;;;;;;;;;;5045467;28;20165;-78
2022/03/08 14:08:28;;;;;;;8.55;4.40;;;;;;;;;;5049126;28;20815;-78
2022/03/08 14:10:56;;;;;;;9.25;4.60;;;;;;;;;;5020749;28;20061;-79
2022/03/08 14:13:23;;;;;;;7.05;4.43;;;;;;;;;;5030739;28;20156;-78
2022/03/08 14:15:54;;;;;;;6.35;4.10;;;;;;;;;;5053250;28;20107;-78
2022/03/08 14:18:21;;;;;;;7.18;4.88;;;;;;;;;;5055588;28;20060;-79
2022/03/08 14:20:47;;;;;;;6.88;4.43;;;;;;;;;;5052650;28;20056;-78
2022/03/08 14:23:14;;;;;;;7.65;4.47;;;;;;;;;;5040243;28;20062;-79
2022/03/08 14:25:59;;;;;;;9.77;4.57;;;;;;;;;;5038803;28;20111;-79
2022/03/08 14:28:42;;;;;;;7.85;4.57;;;;;;;;;;5056407;28;20076;-79
2022/03/08 14:31:27;;;;;;;8.15;4.30;;;;;;;;;;5039049;28;20065;-78
2022/03/08 14:33:54;;;;;;;7.28;4.35;;;;;;;;;;5031474;28;20065;-79
2022/03/08 14:36:35;;;;;;;8.13;4.57;;;;;;;;;;5037434;28;20047;-79
2022/03/08 14:39:22;;;;;;;7.78;4.60;;;;;;;;;;5034654;28;20819;-78
2022/03/08 14:41:52;;;;;;;7.57;4.70;;;;;;;;;;5020522;28;20034;-79